sensor_id;sensor_type;location;lat;lon;timestamp;pressure;altitude;pressure_sealevel;temperature;humidity
20889;BME280;10604;51.976;7.594;2023-04-08T00:01:11;101446.66;;;5.17;90.43
20889;BME280;10604;51.976;7.594;2023-04-08T00:03:36;101451.00;;;5.22;90.29
20889;BME280;10604;51.976;7.594;2023-04-08T00:06:02;101447.50;;;5.16;89.73
20889;BME280;10604;51.976;7.594;2023-04-08T00:08:28;101448.41;;;5.18;90.07
20889;BME280;10604;51.976;7.594;2023-04-08T00:10:53;101456.22;;;5.19;89.55
20889;BME280;10604;51.976;7.594;2023-04-08T00:13:18;101445.78;;;5.24;89.82
20889;BME280;10604;51.976;7.594;2023-04-08T00:15:44;101447.53;;;5.19;89.47
20889;BME280;10604;51.976;7.594;2023-04-08T00:18:09;101451.00;;;5.21;89.30
20889;BME280;10604;51.976;7.594;2023-04-08T00:20:35;101449.25;;;5.10;89.15
20889;BME280;10604;51.976;7.594;2023-04-08T00:23:00;101445.72;;;5.05;88.66
20889;BME280;10604;51.976;7.594;2023-04-08T00:25:25;101447.44;;;5.00;88.75
20889;BME280;10604;51.976;7.594;2023-04-08T00:27:50;101447.41;;;4.97;89.04
20889;BME280;10604;51.976;7.594;2023-04-08T00:30:16;101454.38;;;4.92;88.36
20889;BME280;10604;51.976;7.594;2023-04-08T00:32:41;101448.19;;;4.77;89.05
20889;BME280;10604;51.976;7.594;2023-04-08T00:35:06;101456.06;;;4.75;89.07
20889;BME280;10604;51.976;7.594;2023-04-08T00:37:32;101455.16;;;4.76;89.47
20889;BME280;10604;51.976;7.594;2023-04-08T00:39:58;101451.63;;;4.69;90.08
20889;BME280;10604;51.976;7.594;2023-04-08T00:42:23;101459.50;;;4.71;90.07
20889;BME280;10604;51.976;7.594;2023-04-08T00:44:49;101456.84;;;4.60;90.00
20889;BME280;10604;51.976;7.594;2023-04-08T00:47:14;101460.31;;;4.59;90.08
20889;BME280;10604;51.976;7.594;2023-04-08T00:49:41;101459.44;;;4.59;90.05
20889;BME280;10604;51.976;7.594;2023-04-08T00:52:06;101464.63;;;4.53;89.58
20889;BME280;10604;51.976;7.594;2023-04-08T00:54:31;101463.75;;;4.57;89.69
20889;BME280;10604;51.976;7.594;2023-04-08T00:56:57;101466.31;;;4.48;89.75
20889;BME280;10604;51.976;7.594;2023-04-08T00:59:25;101470.72;;;4.56;90.15
20889;BME280;10604;51.976;7.594;2023-04-08T01:01:55;101468.09;;;4.52;90.33
20889;BME280;10604;51.976;7.594;2023-04-08T01:09:34;101473.22;;;4.37;89.75
20889;BME280;10604;51.976;7.594;2023-04-08T01:12:03;101478.41;;;4.32;89.92
20889;BME280;10604;51.976;7.594;2023-04-08T01:14:30;101476.63;;;4.29;89.98
20889;BME280;10604;51.976;7.594;2023-04-08T01:16:56;101481.91;;;4.36;89.82
20889;BME280;10604;51.976;7.594;2023-04-08T01:19:26;101473.16;;;4.30;89.60
20889;BME280;10604;51.976;7.594;2023-04-08T01:21:52;101470.53;;;4.29;89.69
20889;BME280;10604;51.976;7.594;2023-04-08T01:24:21;101469.66;;;4.28;89.92
20889;BME280;10604;51.976;7.594;2023-04-08T01:26:48;101467.91;;;4.24;89.85
20889;BME280;10604;51.976;7.594;2023-04-08T01:29:14;101476.56;;;4.17;90.00
20889;BME280;10604;51.976;7.594;2023-04-08T01:31:40;101473.06;;;4.15;89.99
20889;BME280;10604;51.976;7.594;2023-04-08T01:34:06;101480.00;;;4.12;89.85
20889;BME280;10604;51.976;7.594;2023-04-08T01:36:32;101479.09;;;4.13;89.69
20889;BME280;10604;51.976;7.594;2023-04-08T01:39:00;101477.31;;;4.06;89.54
20889;BME280;10604;51.976;7.594;2023-04-08T01:41:26;101480.78;;;4.03;89.59
20889;BME280;10604;51.976;7.594;2023-04-08T01:43:53;101487.75;;;4.06;89.30
20889;BME280;10604;51.976;7.594;2023-04-08T01:46:19;101487.75;;;4.04;89.25
20889;BME280;10604;51.976;7.594;2023-04-08T01:48:45;101486.81;;;3.99;88.87
20889;BME280;10604;51.976;7.594;2023-04-08T01:51:11;101488.56;;;3.97;89.17
20889;BME280;10604;51.976;7.594;2023-04-08T01:53:36;101498.13;;;3.97;89.08
20889;BME280;10604;51.976;7.594;2023-04-08T01:56:05;101497.25;;;3.99;89.03
20889;BME280;10604;51.976;7.594;2023-04-08T01:58:32;101491.13;;;3.92;89.18
20889;BME280;10604;51.976;7.594;2023-04-08T02:01:00;101494.50;;;3.81;88.98
20889;BME280;10604;51.976;7.594;2023-04-08T02:03:26;101489.22;;;3.78;89.20
20889;BME280;10604;51.976;7.594;2023-04-08T02:05:52;101495.25;;;3.71;89.22
20889;BME280;10604;51.976;7.594;2023-04-08T02:08:18;101498.66;;;3.61;89.41
20889;BME280;10604;51.976;7.594;2023-04-08T02:10:43;101496.84;;;3.57;89.75
20889;BME280;10604;51.976;7.594;2023-04-08T02:13:08;101498.69;;;3.67;89.63
20889;BME280;10604;51.976;7.594;2023-04-08T02:15:34;101491.72;;;3.66;89.08
20889;BME280;10604;51.976;7.594;2023-04-08T02:18:33;101502.97;;;3.60;89.23
20889;BME280;10604;51.976;7.594;2023-04-08T02:20:56;101492.56;;;3.60;89.37
20889;BME280;10604;51.976;7.594;2023-04-08T02:23:23;101491.63;;;3.57;89.21
20889;BME280;10604;51.976;7.594;2023-04-08T02:25:49;101509.00;;;3.54;89.23
20889;BME280;10604;51.976;7.594;2023-04-08T02:28:15;101498.59;;;3.54;89.49
20889;BME280;10604;51.976;7.594;2023-04-08T02:30:42;101495.03;;;3.49;89.14
20889;BME280;10604;51.976;7.594;2023-04-08T02:33:08;101500.28;;;3.52;89.41
20889;BME280;10604;51.976;7.594;2023-04-08T02:35:35;101511.59;;;3.53;89.05
20889;BME280;10604;51.976;7.594;2023-04-08T02:38:00;101512.41;;;3.49;89.24
20889;BME280;10604;51.976;7.594;2023-04-08T02:40:30;101514.06;;;3.42;89.46
20889;BME280;10604;51.976;7.594;2023-04-08T02:42:56;101511.47;;;3.42;89.44
20889;BME280;10604;51.976;7.594;2023-04-08T02:45:21;101510.50;;;3.34;89.39
20889;BME280;10604;51.976;7.594;2023-04-08T02:47:48;101512.22;;;3.32;89.53
20889;BME280;10604;51.976;7.594;2023-04-08T02:50:13;101514.81;;;3.31;89.84
20889;BME280;10604;51.976;7.594;2023-04-08T02:52:38;101512.16;;;3.26;89.87
20889;BME280;10604;51.976;7.594;2023-04-08T02:55:03;101513.81;;;3.21;90.11
20889;BME280;10604;51.976;7.594;2023-04-08T02:57:31;101526.03;;;3.25;89.87
20889;BME280;10604;51.976;7.594;2023-04-08T02:59:56;101521.78;;;3.32;90.25
20889;BME280;10604;51.976;7.594;2023-04-08T03:02:21;101518.28;;;3.30;89.75
20889;BME280;10604;51.976;7.594;2023-04-08T03:04:46;101522.66;;;3.32;90.15
20889;BME280;10604;51.976;7.594;2023-04-08T03:07:11;101531.41;;;3.37;90.23
20889;BME280;10604;51.976;7.594;2023-04-08T03:09:37;101524.44;;;3.36;90.17
20889;BME280;10604;51.976;7.594;2023-04-08T03:12:02;101524.47;;;3.39;90.06
20889;BME280;10604;51.976;7.594;2023-04-08T03:14:27;101528.81;;;3.39;90.24
20889;BME280;10604;51.976;7.594;2023-04-08T03:16:52;101517.56;;;3.44;91.06
20889;BME280;10604;51.976;7.594;2023-04-08T03:19:18;101514.19;;;3.51;90.96
20889;BME280;10604;51.976;7.594;2023-04-08T03:21:43;101530.72;;;3.53;91.05
20889;BME280;10604;51.976;7.594;2023-04-08T03:24:08;101522.97;;;3.60;91.49
20889;BME280;10604;51.976;7.594;2023-04-08T03:26:33;101525.63;;;3.66;91.44
20889;BME280;10604;51.976;7.594;2023-04-08T03:28:59;101524.78;;;3.70;91.57
20889;BME280;10604;51.976;7.594;2023-04-08T03:31:24;101524.84;;;3.73;91.72
20889;BME280;10604;51.976;7.594;2023-04-08T03:33:50;101519.72;;;3.82;91.73
20889;BME280;10604;51.976;7.594;2023-04-08T03:36:15;101526.78;;;3.92;91.81
20889;BME280;10604;51.976;7.594;2023-04-08T03:38:40;101527.66;;;3.94;91.71
20889;BME280;10604;51.976;7.594;2023-04-08T03:41:05;101533.78;;;3.99;91.12
20889;BME280;10604;51.976;7.594;2023-04-08T03:43:31;101530.44;;;4.09;91.33
20889;BME280;10604;51.976;7.594;2023-04-08T03:45:56;101533.94;;;4.14;91.02
20889;BME280;10604;51.976;7.594;2023-04-08T03:48:22;101527.00;;;4.16;91.23
20889;BME280;10604;51.976;7.594;2023-04-08T03:50:47;101528.78;;;4.20;91.26
20889;BME280;10604;51.976;7.594;2023-04-08T03:53:12;101530.56;;;4.27;90.98
20889;BME280;10604;51.976;7.594;2023-04-08T03:55:38;101523.69;;;4.32;90.92
20889;BME280;10604;51.976;7.594;2023-04-08T03:58:03;101522.03;;;4.47;91.16
20889;BME280;10604;51.976;7.594;2023-04-08T04:00:28;101532.53;;;4.53;91.43
20889;BME280;10604;51.976;7.594;2023-04-08T04:02:53;101521.22;;;4.52;91.57
20889;BME280;10604;51.976;7.594;2023-04-08T04:05:20;101529.06;;;4.57;91.22
20889;BME280;10604;51.976;7.594;2023-04-08T04:07:45;101526.50;;;4.61;91.46
20889;BME280;10604;51.976;7.594;2023-04-08T04:10:10;101529.09;;;4.63;91.87
20889;BME280;10604;51.976;7.594;2023-04-08T04:12:36;101526.53;;;4.70;91.37
20889;BME280;10604;51.976;7.594;2023-04-08T04:15:01;101526.50;;;4.63;91.38
20889;BME280;10604;51.976;7.594;2023-04-08T04:17:26;101534.31;;;4.63;91.56
20889;BME280;10604;51.976;7.594;2023-04-08T04:19:51;101537.91;;;4.74;91.59
20889;BME280;10604;51.976;7.594;2023-04-08T04:22:17;101537.94;;;4.80;91.40
20889;BME280;10604;51.976;7.594;2023-04-08T04:24:45;101529.25;;;4.81;91.42
20889;BME280;10604;51.976;7.594;2023-04-08T04:27:10;101540.56;;;4.83;91.35
20889;BME280;10604;51.976;7.594;2023-04-08T04:29:35;101543.19;;;4.86;91.17
20889;BME280;10604;51.976;7.594;2023-04-08T04:32:01;101546.72;;;4.88;91.86
20889;BME280;10604;51.976;7.594;2023-04-08T04:34:26;101541.50;;;4.97;91.37
20889;BME280;10604;51.976;7.594;2023-04-08T04:36:51;101539.78;;;4.99;91.12
20889;BME280;10604;51.976;7.594;2023-04-08T04:39:16;101543.38;;;5.17;90.50
20889;BME280;10604;51.976;7.594;2023-04-08T04:41:42;101543.28;;;5.04;89.86
20889;BME280;10604;51.976;7.594;2023-04-08T04:44:08;101544.19;;;5.03;90.13
20889;BME280;10604;51.976;7.594;2023-04-08T04:46:33;101545.06;;;5.02;90.07
20889;BME280;10604;51.976;7.594;2023-04-08T04:48:58;101544.16;;;5.05;89.57
20889;BME280;10604;51.976;7.594;2023-04-08T04:51:24;101560.75;;;5.11;89.55
20889;BME280;10604;51.976;7.594;2023-04-08T04:53:50;101557.31;;;5.16;90.04
20889;BME280;10604;51.976;7.594;2023-04-08T04:56:15;101560.75;;;5.11;90.14
20889;BME280;10604;51.976;7.594;2023-04-08T04:58:41;101557.34;;;5.17;90.25
20889;BME280;10604;51.976;7.594;2023-04-08T05:01:06;101560.84;;;5.24;91.04
20889;BME280;10604;51.976;7.594;2023-04-08T05:03:31;101565.22;;;5.25;90.58
20889;BME280;10604;51.976;7.594;2023-04-08T05:05:56;101569.59;;;5.26;90.44
20889;BME280;10604;51.976;7.594;2023-04-08T05:08:22;101565.16;;;5.20;90.59
20889;BME280;10604;51.976;7.594;2023-04-08T05:10:47;101569.59;;;5.32;90.94
20889;BME280;10604;51.976;7.594;2023-04-08T05:13:14;101564.38;;;5.35;90.65
20889;BME280;10604;51.976;7.594;2023-04-08T05:15:40;101574.03;;;5.49;90.59
20889;BME280;10604;51.976;7.594;2023-04-08T05:18:05;101572.31;;;5.62;90.01
20889;BME280;10604;51.976;7.594;2023-04-08T05:20:30;101562.78;;;5.76;89.52
20889;BME280;10604;51.976;7.594;2023-04-08T05:22:56;101568.88;;;5.68;88.14
20889;BME280;10604;51.976;7.594;2023-04-08T05:25:21;101570.66;;;5.79;87.96
20889;BME280;10604;51.976;7.594;2023-04-08T05:27:46;101577.72;;;5.89;87.84
20889;BME280;10604;51.976;7.594;2023-04-08T05:30:11;101582.06;;;6.00;87.61
20889;BME280;10604;51.976;7.594;2023-04-08T05:32:37;101579.47;;;6.07;87.14
20889;BME280;10604;51.976;7.594;2023-04-08T05:35:02;101583.84;;;6.13;86.44
20889;BME280;10604;51.976;7.594;2023-04-08T05:37:28;101588.25;;;6.24;86.48
20889;BME280;10604;51.976;7.594;2023-04-08T05:39:53;101596.09;;;6.35;86.45
20889;BME280;10604;51.976;7.594;2023-04-08T05:42:18;101597.88;;;6.51;86.41
20889;BME280;10604;51.976;7.594;2023-04-08T05:44:43;101599.59;;;6.37;85.18
20889;BME280;10604;51.976;7.594;2023-04-08T05:47:09;101600.50;;;6.53;85.20
20889;BME280;10604;51.976;7.594;2023-04-08T05:49:34;101600.47;;;6.54;85.38
20889;BME280;10604;51.976;7.594;2023-04-08T05:51:59;101603.13;;;6.60;84.58
20889;BME280;10604;51.976;7.594;2023-04-08T05:54:25;101606.63;;;6.65;84.67
20889;BME280;10604;51.976;7.594;2023-04-08T05:56:50;101611.84;;;6.68;84.11
20889;BME280;10604;51.976;7.594;2023-04-08T05:59:15;101612.72;;;6.77;84.08
20889;BME280;10604;51.976;7.594;2023-04-08T06:01:41;101613.59;;;6.79;84.22
20889;BME280;10604;51.976;7.594;2023-04-08T06:04:06;101609.22;;;6.85;84.24
20889;BME280;10604;51.976;7.594;2023-04-08T06:06:31;101610.09;;;6.81;83.88
20889;BME280;10604;51.976;7.594;2023-04-08T06:08:56;101612.72;;;6.89;84.35
20889;BME280;10604;51.976;7.594;2023-04-08T06:11:22;101611.84;;;6.96;84.38
20889;BME280;10604;51.976;7.594;2023-04-08T06:13:47;101619.66;;;7.11;83.87
20889;BME280;10604;51.976;7.594;2023-04-08T06:16:13;101617.91;;;7.30;83.71
20889;BME280;10604;51.976;7.594;2023-04-08T06:18:38;101621.34;;;7.48;83.55
20889;BME280;10604;51.976;7.594;2023-04-08T06:21:04;101627.38;;;7.70;83.37
20889;BME280;10604;51.976;7.594;2023-04-08T06:23:30;101630.81;;;7.86;82.58
20889;BME280;10604;51.976;7.594;2023-04-08T06:25:55;101634.22;;;8.03;82.66
20889;BME280;10604;51.976;7.594;2023-04-08T06:28:21;101646.50;;;8.01;81.72
20889;BME280;10604;51.976;7.594;2023-04-08T06:30:46;101645.69;;;7.85;81.48
20889;BME280;10604;51.976;7.594;2023-04-08T06:33:11;101647.47;;;7.79;81.03
20889;BME280;10604;51.976;7.594;2023-04-08T06:35:36;101643.09;;;7.78;81.17
20889;BME280;10604;51.976;7.594;2023-04-08T06:38:02;101639.66;;;7.61;80.91
20889;BME280;10604;51.976;7.594;2023-04-08T06:40:27;101649.31;;;7.50;81.24
20889;BME280;10604;51.976;7.594;2023-04-08T06:42:53;101643.19;;;7.57;81.54
20889;BME280;10604;51.976;7.594;2023-04-08T06:45:18;101646.63;;;7.71;81.54
20889;BME280;10604;51.976;7.594;2023-04-08T06:47:43;101646.66;;;7.62;81.38
20889;BME280;10604;51.976;7.594;2023-04-08T06:50:09;101658.00;;;7.79;81.77
20889;BME280;10604;51.976;7.594;2023-04-08T06:52:34;101662.38;;;7.74;81.29
20889;BME280;10604;51.976;7.594;2023-04-08T06:54:59;101655.38;;;7.79;80.91
20889;BME280;10604;51.976;7.594;2023-04-08T06:57:25;101671.00;;;8.03;80.37
20889;BME280;10604;51.976;7.594;2023-04-08T06:59:51;101672.72;;;8.10;80.50
20889;BME280;10604;51.976;7.594;2023-04-08T07:02:17;101670.00;;;8.25;79.94
20889;BME280;10604;51.976;7.594;2023-04-08T07:04:42;101670.88;;;8.27;80.46
20889;BME280;10604;51.976;7.594;2023-04-08T07:07:08;101667.38;;;8.35;80.59
20889;BME280;10604;51.976;7.594;2023-04-08T07:09:33;101669.13;;;8.34;79.72
20889;BME280;10604;51.976;7.594;2023-04-08T07:12:00;101670.88;;;8.37;80.55
20889;BME280;10604;51.976;7.594;2023-04-08T07:14:25;101677.88;;;8.38;80.21
20889;BME280;10604;51.976;7.594;2023-04-08T07:16:51;101683.09;;;8.41;80.21
20889;BME280;10604;51.976;7.594;2023-04-08T07:19:16;101695.28;;;8.57;80.18
20889;BME280;10604;51.976;7.594;2023-04-08T07:21:41;101693.50;;;8.62;79.67
20889;BME280;10604;51.976;7.594;2023-04-08T07:24:07;101688.28;;;8.53;79.97
20889;BME280;10604;51.976;7.594;2023-04-08T07:26:32;101693.66;;;8.32;79.51
20889;BME280;10604;51.976;7.594;2023-04-08T07:28:57;101693.56;;;8.50;80.30
20889;BME280;10604;51.976;7.594;2023-04-08T07:31:22;101697.06;;;8.52;79.93
20889;BME280;10604;51.976;7.594;2023-04-08T07:33:47;101690.06;;;8.51;80.31
20889;BME280;10604;51.976;7.594;2023-04-08T07:36:13;101711.09;;;8.51;80.31
20889;BME280;10604;51.976;7.594;2023-04-08T07:38:39;101690.03;;;8.54;80.30
20889;BME280;10604;51.976;7.594;2023-04-08T07:41:04;101695.19;;;8.72;80.19
20889;BME280;10604;51.976;7.594;2023-04-08T07:43:30;101703.91;;;8.74;79.47
20889;BME280;10604;51.976;7.594;2023-04-08T07:46:00;101706.53;;;8.77;79.66
20889;BME280;10604;51.976;7.594;2023-04-08T07:48:27;101706.63;;;8.67;79.67
20889;BME280;10604;51.976;7.594;2023-04-08T07:50:52;101703.03;;;8.78;80.32
20889;BME280;10604;51.976;7.594;2023-04-08T07:53:17;101709.13;;;8.85;79.67
20889;BME280;10604;51.976;7.594;2023-04-08T07:55:43;101712.66;;;8.79;79.37
20889;BME280;10604;51.976;7.594;2023-04-08T07:58:08;101716.91;;;8.98;79.55
20889;BME280;10604;51.976;7.594;2023-04-08T08:00:34;101716.06;;;8.93;79.55
20889;BME280;10604;51.976;7.594;2023-04-08T08:02:59;101722.09;;;9.09;79.47
20889;BME280;10604;51.976;7.594;2023-04-08T08:05:24;101726.31;;;9.24;78.91
20889;BME280;10604;51.976;7.594;2023-04-08T08:07:50;101726.19;;;9.39;78.69
20889;BME280;10604;51.976;7.594;2023-04-08T08:10:15;101738.34;;;9.55;78.65
20889;BME280;10604;51.976;7.594;2023-04-08T08:12:40;101734.75;;;9.62;77.67
20889;BME280;10604;51.976;7.594;2023-04-08T08:15:06;101737.88;;;10.01;77.42
20889;BME280;10604;51.976;7.594;2023-04-08T08:17:31;101739.44;;;10.17;77.36
20889;BME280;10604;51.976;7.594;2023-04-08T08:19:58;101735.91;;;10.16;76.42
20889;BME280;10604;51.976;7.594;2023-04-08T08:22:23;101735.16;;;10.08;76.38
20889;BME280;10604;51.976;7.594;2023-04-08T08:24:48;101732.63;;;9.95;76.29
20889;BME280;10604;51.976;7.594;2023-04-08T08:27:13;101721.22;;;9.96;76.86
20889;BME280;10604;51.976;7.594;2023-04-08T08:29:38;101737.97;;;9.89;76.70
20889;BME280;10604;51.976;7.594;2023-04-08T08:32:04;101737.88;;;9.98;76.72
20889;BME280;10604;51.976;7.594;2023-04-08T08:34:30;101737.78;;;10.07;76.92
20889;BME280;10604;51.976;7.594;2023-04-08T08:36:55;101737.56;;;10.28;76.26
20889;BME280;10604;51.976;7.594;2023-04-08T08:39:21;101747.25;;;10.26;75.62
20889;BME280;10604;51.976;7.594;2023-04-08T08:41:46;101748.44;;;10.67;75.36
20889;BME280;10604;51.976;7.594;2023-04-08T08:44:11;101757.13;;;11.31;74.85
20889;BME280;10604;51.976;7.594;2023-04-08T08:46:41;101745.09;;;12.12;72.87
20889;BME280;10604;51.976;7.594;2023-04-08T08:49:07;101757.78;;;12.38;70.43
20889;BME280;10604;51.976;7.594;2023-04-08T08:51:32;101761.25;;;11.98;69.96
20889;BME280;10604;51.976;7.594;2023-04-08T08:54:00;101766.59;;;11.94;69.10
20889;BME280;10604;51.976;7.594;2023-04-08T08:56:26;101766.31;;;11.61;68.82
20889;BME280;10604;51.976;7.594;2023-04-08T08:58:51;101771.09;;;11.39;70.53
20889;BME280;10604;51.976;7.594;2023-04-08T09:01:36;101774.97;;;11.17;70.24
20889;BME280;10604;51.976;7.594;2023-04-08T09:04:09;101776.94;;;11.03;71.27
20889;BME280;10604;51.976;7.594;2023-04-08T09:06:35;101768.38;;;10.89;71.32
20889;BME280;10604;51.976;7.594;2023-04-08T09:09:00;101772.06;;;10.76;72.33
20889;BME280;10604;51.976;7.594;2023-04-08T09:11:26;101770.53;;;10.59;72.85
20889;BME280;10604;51.976;7.594;2023-04-08T09:13:52;101775.66;;;10.72;72.42
20889;BME280;10604;51.976;7.594;2023-04-08T09:16:17;101766.97;;;10.64;72.62
20889;BME280;10604;51.976;7.594;2023-04-08T09:18:44;101764.84;;;10.90;72.04
20889;BME280;10604;51.976;7.594;2023-04-08T09:21:11;101765.69;;;11.46;71.64
20889;BME280;10604;51.976;7.594;2023-04-08T09:23:41;101768.50;;;11.87;69.32
20889;BME280;10604;51.976;7.594;2023-04-08T09:26:07;101766.16;;;12.58;68.41
20889;BME280;10604;51.976;7.594;2023-04-08T09:28:33;101758.38;;;12.52;67.22
20889;BME280;10604;51.976;7.594;2023-04-08T09:30:58;101763.03;;;12.79;66.34
20889;BME280;10604;51.976;7.594;2023-04-08T09:33:30;101763.53;;;12.58;66.03
20889;BME280;10604;51.976;7.594;2023-04-08T09:35:56;101772.59;;;12.48;66.11
20889;BME280;10604;51.976;7.594;2023-04-08T09:38:21;101773.53;;;12.85;65.97
20889;BME280;10604;51.976;7.594;2023-04-08T09:40:46;101769.38;;;12.72;67.01
20889;BME280;10604;51.976;7.594;2023-04-08T09:43:11;101779.97;;;13.14;65.19
20889;BME280;10604;51.976;7.594;2023-04-08T09:45:37;101770.34;;;13.45;63.47
20889;BME280;10604;51.976;7.594;2023-04-08T09:48:18;101779.88;;;13.17;64.11
20889;BME280;10604;51.976;7.594;2023-04-08T09:50:48;101785.84;;;12.86;64.02
20889;BME280;10604;51.976;7.594;2023-04-08T09:53:18;101780.81;;;12.74;64.98
20889;BME280;10604;51.976;7.594;2023-04-08T09:55:45;101790.25;;;12.46;66.28
20889;BME280;10604;51.976;7.594;2023-04-08T09:58:15;101789.38;;;12.02;67.53
20889;BME280;10604;51.976;7.594;2023-04-08T10:00:46;101785.97;;;11.94;67.85
20889;BME280;10604;51.976;7.594;2023-04-08T10:05:48;101780.66;;;11.97;68.18
20889;BME280;10604;51.976;7.594;2023-04-08T10:08:14;101773.19;;;12.18;68.61
20889;BME280;10604;51.976;7.594;2023-04-08T10:10:39;101773.69;;;12.36;68.69
20889;BME280;10604;51.976;7.594;2023-04-08T10:13:05;101771.75;;;12.44;67.84
20889;BME280;10604;51.976;7.594;2023-04-08T10:15:31;101769.78;;;12.55;66.67
20889;BME280;10604;51.976;7.594;2023-04-08T10:22:59;101777.00;;;12.86;66.11
20889;BME280;10604;51.976;7.594;2023-04-08T10:27:56;101788.34;;;13.31;65.34
20889;BME280;10604;51.976;7.594;2023-04-08T10:32:50;101793.13;;;13.52;64.28
20889;BME280;10604;51.976;7.594;2023-04-08T10:35:15;101779.81;;;13.88;64.49
20889;BME280;10604;51.976;7.594;2023-04-08T10:37:41;101781.50;;;14.23;63.27
20889;BME280;10604;51.976;7.594;2023-04-08T10:40:07;101774.72;;;14.13;61.84
20889;BME280;10604;51.976;7.594;2023-04-08T10:42:42;101784.06;;;14.26;62.09
20889;BME280;10604;51.976;7.594;2023-04-08T10:45:08;101782.84;;;14.37;61.81
20889;BME280;10604;51.976;7.594;2023-04-08T10:47:33;101785.69;;;14.31;62.16
20889;BME280;10604;51.976;7.594;2023-04-08T10:49:58;101789.84;;;14.09;61.66
20889;BME280;10604;51.976;7.594;2023-04-08T10:52:23;101786.25;;;14.11;61.78
20889;BME280;10604;51.976;7.594;2023-04-08T10:54:51;101793.34;;;14.11;62.34
20889;BME280;10604;51.976;7.594;2023-04-08T10:57:26;101785.63;;;14.33;62.85
20889;BME280;10604;51.976;7.594;2023-04-08T10:59:51;101785.34;;;14.43;63.42
20889;BME280;10604;51.976;7.594;2023-04-08T11:02:17;101786.59;;;14.30;61.46
20889;BME280;10604;51.976;7.594;2023-04-08T11:04:42;101781.72;;;13.83;62.65
20889;BME280;10604;51.976;7.594;2023-04-08T11:07:08;101786.88;;;13.89;62.43
20889;BME280;10604;51.976;7.594;2023-04-08T11:09:33;101784.00;;;13.96;63.04
20889;BME280;10604;51.976;7.594;2023-04-08T11:11:59;101786.53;;;13.33;63.80
20889;BME280;10604;51.976;7.594;2023-04-08T11:14:26;101778.63;;;13.65;63.79
20889;BME280;10604;51.976;7.594;2023-04-08T11:16:51;101774.50;;;13.88;63.81
20889;BME280;10604;51.976;7.594;2023-04-08T11:19:16;101766.88;;;14.08;63.47
20889;BME280;10604;51.976;7.594;2023-04-08T11:21:42;101772.59;;;14.25;62.56
20889;BME280;10604;51.976;7.594;2023-04-08T11:24:10;101769.97;;;14.24;62.88
20889;BME280;10604;51.976;7.594;2023-04-08T11:26:36;101773.31;;;14.30;62.35
20889;BME280;10604;51.976;7.594;2023-04-08T11:29:01;101768.91;;;14.29;61.74
20889;BME280;10604;51.976;7.594;2023-04-08T11:31:27;101763.91;;;14.20;62.59
20889;BME280;10604;51.976;7.594;2023-04-08T11:33:53;101774.53;;;14.49;62.97
20889;BME280;10604;51.976;7.594;2023-04-08T11:36:22;101775.78;;;14.38;62.99
20889;BME280;10604;51.976;7.594;2023-04-08T11:38:48;101770.34;;;14.42;62.28
20889;BME280;10604;51.976;7.594;2023-04-08T11:41:13;101775.38;;;14.52;61.58
20889;BME280;10604;51.976;7.594;2023-04-08T11:43:39;101774.09;;;14.65;61.97
20889;BME280;10604;51.976;7.594;2023-04-08T11:46:14;101764.34;;;14.93;61.62
20889;BME280;10604;51.976;7.594;2023-04-08T11:48:40;101764.50;;;15.16;61.96
20889;BME280;10604;51.976;7.594;2023-04-08T11:51:05;101774.31;;;15.14;60.39
20889;BME280;10604;51.976;7.594;2023-04-08T11:53:34;101774.69;;;15.02;60.58
20889;BME280;10604;51.976;7.594;2023-04-08T11:56:23;101772.09;;;14.73;62.55
20889;BME280;10604;51.976;7.594;2023-04-08T11:58:48;101772.19;;;14.70;62.62
20889;BME280;10604;51.976;7.594;2023-04-08T12:01:13;101781.41;;;14.57;63.44
20889;BME280;10604;51.976;7.594;2023-04-08T12:03:52;101778.41;;;14.39;64.27
20889;BME280;10604;51.976;7.594;2023-04-08T12:06:17;101781.34;;;14.60;64.25
20889;BME280;10604;51.976;7.594;2023-04-08T12:08:42;101781.25;;;14.63;63.48
20889;BME280;10604;51.976;7.594;2023-04-08T12:11:08;101782.50;;;14.19;63.97
20889;BME280;10604;51.976;7.594;2023-04-08T12:13:34;101777.53;;;14.39;63.96
20889;BME280;10604;51.976;7.594;2023-04-08T12:15:59;101778.22;;;14.45;63.70
20889;BME280;10604;51.976;7.594;2023-04-08T12:18:24;101774.84;;;14.40;64.02
20889;BME280;10604;51.976;7.594;2023-04-08T12:20:49;101780.16;;;14.40;64.52
20889;BME280;10604;51.976;7.594;2023-04-08T12:23:15;101775.16;;;14.59;64.02
20889;BME280;10604;51.976;7.594;2023-04-08T12:25:40;101771.09;;;14.77;64.68
20889;BME280;10604;51.976;7.594;2023-04-08T12:28:05;101778.50;;;14.66;63.59
20889;BME280;10604;51.976;7.594;2023-04-08T12:30:33;101778.44;;;14.36;63.28
20889;BME280;10604;51.976;7.594;2023-04-08T12:32:58;101778.19;;;14.15;64.81
20889;BME280;10604;51.976;7.594;2023-04-08T12:35:23;101781.78;;;14.44;64.37
20889;BME280;10604;51.976;7.594;2023-04-08T12:37:49;101780.63;;;14.22;63.84
20889;BME280;10604;51.976;7.594;2023-04-08T12:40:14;101782.03;;;14.04;64.98
20889;BME280;10604;51.976;7.594;2023-04-08T12:42:40;101780.56;;;14.25;65.63
20889;BME280;10604;51.976;7.594;2023-04-08T12:45:05;101772.00;;;14.14;65.73
20889;BME280;10604;51.976;7.594;2023-04-08T12:47:30;101778.78;;;13.93;65.64
20889;BME280;10604;51.976;7.594;2023-04-08T12:49:57;101777.25;;;14.17;66.40
20889;BME280;10604;51.976;7.594;2023-04-08T12:52:22;101784.78;;;14.00;66.90
20889;BME280;10604;51.976;7.594;2023-04-08T12:54:48;101789.78;;;14.12;66.09
20889;BME280;10604;51.976;7.594;2023-04-08T12:57:13;101789.34;;;14.27;66.37
20889;BME280;10604;51.976;7.594;2023-04-08T12:59:38;101779.53;;;14.29;66.25
20889;BME280;10604;51.976;7.594;2023-04-08T13:02:04;101786.72;;;14.57;65.90
20889;BME280;10604;51.976;7.594;2023-04-08T13:04:29;101778.72;;;14.27;65.48
20889;BME280;10604;51.976;7.594;2023-04-08T13:06:54;101776.81;;;14.32;66.25
20889;BME280;10604;51.976;7.594;2023-04-08T13:09:21;101775.63;;;14.11;66.08